Terminal Aerodrome Forecast
Issued by NWS

Current Version | Previous Version | Text Only | Print | Product List | Glossary On
Versions: 1 2 3 4 5 6 7 8 9 10 11 12 13 14
000
FTUS46 KMTR 162340
TAFOAK
TAF
KOAK 162340Z 1700/1806 33015G27KT P6SM FEW200
     FM170200 34012KT P6SM SKC WS020/36040KT
     FM170800 35006KT P6SM SKC WS020/01035KT
     FM171500 33005KT P6SM SKC WS020/36025KT
     FM180300 34005KT P6SM SKC=

USA.gov is the U.S. government's official web portal to all federal, state and local government web resources and services.